Time;durP1;ratioP1;P1;durP2;ratioP2;P2;SDS_P1;SDS_P2;PMS_P1;PMS_P2;Temp;Humidity;BMP_temperature;BMP_pressure;BME280_temperature;BME280_humidity;BME280_pressure;Samples;Min_cycle;Max_cycle;Signal;HPM_P1;HPM_P2
2024/04/12 00:02:11;;;;;;;2.57;0.70;;;16.20;92.10;;;;;;5477444;26;20442;-47
2024/04/12 00:04:41;;;;;;;1.57;0.90;;;16.10;92.10;;;;;;5481287;26;20454;-47
2024/04/12 00:07:16;;;;;;;1.27;0.83;;;16.20;92.10;;;;;;5472043;26;20461;-47
2024/04/12 00:09:52;;;;;;;2.53;1.10;;;16.20;92.10;;;;;;5478792;26;20509;-47
2024/04/12 00:12:26;;;;;;;1.30;0.70;;;16.10;92.10;;;;;;5471123;26;20842;-47
2024/04/12 00:15:01;;;;;;;1.30;0.90;;;16.20;92.10;;;;;;5463220;26;20486;-48
2024/04/12 00:17:31;;;;;;;1.30;0.80;;;16.20;92.20;;;;;;5481887;26;20493;-48
2024/04/12 00:20:00;;;;;;;2.10;0.67;;;16.20;92.20;;;;;;5478994;26;20500;-48
2024/04/12 00:22:34;;;;;;;1.10;0.67;;;16.20;92.20;;;;;;5477889;26;20492;-47
2024/04/12 00:25:04;;;;;;;2.23;0.80;;;16.20;92.20;;;;;;5478962;26;20782;-48
2024/04/12 00:27:34;;;;;;;1.20;0.83;;;16.20;92.10;;;;;;5482169;26;20509;-47
2024/04/12 00:30:03;;;;;;;1.80;1.30;;;16.10;92.10;;;;;;5467017;26;20514;-48
2024/04/12 00:32:35;;;;;;;1.67;0.97;;;16.10;92.10;;;;;;5477035;26;20512;-48
2024/04/12 00:35:11;;;;;;;1.77;0.90;;;16.20;92.20;;;;;;5481631;26;20560;-48
2024/04/12 00:37:52;;;;;;;1.53;0.77;;;16.10;92.10;;;;;;5478592;26;20462;-48
2024/04/12 00:40:21;;;;;;;1.50;0.97;;;16.20;92.20;;;;;;5471258;26;20465;-47
2024/04/12 00:42:56;;;;;;;1.33;0.97;;;16.10;92.20;;;;;;5466678;26;20458;-47
2024/04/12 00:45:39;;;;;;;1.17;0.60;;;16.10;92.20;;;;;;5471066;26;20506;-47
2024/04/12 00:48:10;;;;;;;2.43;0.80;;;16.10;92.20;;;;;;5481537;26;20461;-47
2024/04/12 00:50:41;;;;;;;1.10;0.90;;;16.10;92.20;;;;;;5477907;26;20510;-47
2024/04/12 00:53:13;;;;;;;1.43;0.90;;;16.10;92.20;;;;;;5474549;26;20499;-47
2024/04/12 00:55:47;;;;;;;2.53;1.00;;;16.10;92.20;;;;;;5480636;26;21058;-48
2024/04/12 00:58:15;;;;;;;1.10;0.80;;;16.10;92.20;;;;;;5471750;26;20466;-48
2024/04/12 01:00:47;;;;;;;1.27;0.70;;;16.10;92.20;;;;;;5469828;26;20505;-47
2024/04/12 01:03:15;;;;;;;1.57;0.63;;;16.20;92.30;;;;;;5466245;26;21021;-47
2024/04/12 01:05:46;;;;;;;2.60;0.93;;;16.10;92.20;;;;;;5473388;26;20576;-48
2024/04/12 01:08:17;;;;;;;1.20;0.70;;;16.10;92.20;;;;;;5470864;26;20505;-48
2024/04/12 01:10:47;;;;;;;3.20;1.23;;;16.10;92.20;;;;;;5478991;26;20470;-47
2024/04/12 01:13:15;;;;;;;1.37;0.80;;;16.10;92.20;;;;;;5462132;26;20462;-48
2024/04/12 01:15:45;;;;;;;2.97;0.90;;;16.10;92.20;;;;;;5475196;26;20462;-48
2024/04/12 01:18:14;;;;;;;1.20;0.73;;;16.20;92.30;;;;;;5468927;26;21023;-48
2024/04/12 01:20:45;;;;;;;1.20;0.90;;;16.10;92.30;;;;;;5475601;26;20449;-47
2024/04/12 01:23:15;;;;;;;1.30;0.80;;;16.10;92.30;;;;;;5452679;26;20451;-48
2024/04/12 01:25:48;;;;;;;1.40;1.00;;;16.20;92.30;;;;;;5477184;26;20513;-47
2024/04/12 01:28:16;;;;;;;1.20;0.80;;;16.10;92.30;;;;;;5470537;26;20477;-47
2024/04/12 01:30:46;;;;;;;1.50;0.90;;;16.10;92.30;;;;;;5475030;26;20450;-47
2024/04/12 01:33:14;;;;;;;1.87;0.60;;;16.10;92.30;;;;;;5477954;26;20962;-48
2024/04/12 01:35:44;;;;;;;1.63;0.90;;;16.10;92.30;;;;;;5478447;26;20891;-47
2024/04/12 01:38:18;;;;;;;1.53;1.10;;;16.10;92.30;;;;;;5472013;26;20461;-47
2024/04/12 01:40:56;;;;;;;1.30;0.93;;;16.10;92.30;;;;;;5479117;26;20871;-48
2024/04/12 01:43:27;;;;;;;1.73;0.70;;;16.10;92.40;;;;;;5473732;26;20503;-47
2024/04/12 01:45:57;;;;;;;1.60;0.90;;;16.10;92.40;;;;;;5466117;26;20510;-48
2024/04/12 01:48:25;;;;;;;2.07;1.20;;;16.10;92.30;;;;;;5484689;26;20530;-47
2024/04/12 01:50:55;;;;;;;2.80;0.93;;;16.10;92.30;;;;;;5477593;26;20473;-47
2024/04/12 01:53:22;;;;;;;1.07;0.60;;;16.10;92.30;;;;;;5485088;26;20505;-47
2024/04/12 01:55:58;;;;;;;1.00;0.87;;;16.10;92.40;;;;;;5482260;26;20492;-47
2024/04/12 01:58:26;;;;;;;1.30;0.90;;;16.10;92.40;;;;;;5475014;26;20510;-48
2024/04/12 02:00:56;;;;;;;1.20;0.73;;;16.10;92.40;;;;;;5477939;26;20466;-47
2024/04/12 02:03:29;;;;;;;1.37;1.00;;;16.10;92.40;;;;;;5484257;26;20893;-47
2024/04/12 02:06:04;;;;;;;1.30;0.80;;;16.10;92.40;;;;;;5482435;26;21140;-47
2024/04/12 02:08:32;;;;;;;1.67;0.90;;;16.10;92.40;;;;;;5484423;26;20538;-48
2024/04/12 02:11:06;;;;;;;1.07;0.77;;;16.10;92.40;;;;;;5479935;26;20451;-47
2024/04/12 02:13:36;;;;;;;1.60;0.63;;;16.10;92.40;;;;;;5472004;26;20497;-47
2024/04/12 02:16:10;;;;;;;1.30;0.90;;;16.10;92.40;;;;;;5483487;26;20534;-47
2024/04/12 02:18:41;;;;;;;1.40;0.90;;;16.10;92.40;;;;;;5481754;26;20453;-48
2024/04/12 02:21:11;;;;;;;1.10;0.77;;;16.10;92.50;;;;;;5483013;26;20874;-47
2024/04/12 02:23:39;;;;;;;1.23;0.80;;;16.10;92.50;;;;;;5485143;26;20441;-47
2024/04/12 02:26:12;;;;;;;2.23;1.00;;;16.10;92.50;;;;;;5499181;26;20473;-48
2024/04/12 02:28:40;;;;;;;1.20;0.70;;;16.10;92.50;;;;;;5471191;26;21030;-47
2024/04/12 02:31:12;;;;;;;2.00;1.10;;;16.10;92.60;;;;;;5481280;26;21005;-48
2024/04/12 02:33:42;;;;;;;2.40;0.90;;;16.10;92.60;;;;;;5470848;26;20522;-48
2024/04/12 02:36:16;;;;;;;2.70;1.10;;;16.10;92.60;;;;;;5484286;26;20708;-48
2024/04/12 02:38:49;;;;;;;1.70;1.10;;;16.10;92.60;;;;;;5482217;26;20563;-47
2024/04/12 02:41:22;;;;;;;1.20;0.70;;;16.10;92.60;;;;;;5469938;26;20540;-47
2024/04/12 02:43:51;;;;;;;2.13;0.80;;;16.10;92.70;;;;;;5470585;26;20569;-48
2024/04/12 02:46:23;;;;;;;2.17;0.83;;;16.10;92.60;;;;;;5484755;26;20540;-48
2024/04/12 02:48:51;;;;;;;1.47;0.67;;;16.10;92.60;;;;;;5468415;26;20500;-47
2024/04/12 02:51:22;;;;;;;2.33;0.80;;;16.10;92.70;;;;;;5474535;26;20847;-48
2024/04/12 02:53:51;;;;;;;2.30;0.80;;;16.10;92.70;;;;;;5479119;26;20453;-48
2024/04/12 02:56:25;;;;;;;2.07;0.80;;;16.10;92.70;;;;;;5484721;26;20566;-48
2024/04/12 02:58:52;;;;;;;1.20;0.70;;;16.10;92.80;;;;;;5468191;26;20511;-48
2024/04/12 03:01:25;;;;;;;1.23;0.70;;;16.10;92.70;;;;;;5482985;26;20584;-47
2024/04/12 03:03:55;;;;;;;1.70;0.90;;;16.10;92.70;;;;;;5481411;26;21301;-48
2024/04/12 03:06:26;;;;;;;2.80;0.93;;;16.10;92.80;;;;;;5482531;26;20560;-47
2024/04/12 03:08:59;;;;;;;1.40;0.73;;;16.10;92.80;;;;;;5482714;26;20522;-48
2024/04/12 03:11:37;;;;;;;1.13;0.70;;;16.10;92.80;;;;;;5483408;26;20463;-47
2024/04/12 03:14:08;;;;;;;1.60;0.90;;;16.10;92.80;;;;;;5472792;26;20540;-47
2024/04/12 03:16:40;;;;;;;1.20;0.83;;;16.10;92.90;;;;;;5483660;26;20830;-48
2024/04/12 03:19:10;;;;;;;1.73;1.10;;;16.10;92.90;;;;;;5483995;26;20838;-47
2024/04/12 03:21:41;;;;;;;1.00;0.60;;;16.10;92.90;;;;;;5475516;26;20443;-47
2024/04/12 03:24:09;;;;;;;1.00;0.70;;;16.10;92.80;;;;;;5483976;26;20458;-48
2024/04/12 03:26:43;;;;;;;2.10;0.73;;;16.10;92.90;;;;;;5471277;26;20521;-47
2024/04/12 03:29:12;;;;;;;1.03;0.60;;;16.10;92.80;;;;;;5472717;26;20858;-47
2024/04/12 03:31:46;;;;;;;1.33;0.80;;;16.10;92.90;;;;;;5484811;26;20520;-48
2024/04/12 03:34:14;;;;;;;1.57;0.90;;;16.10;92.90;;;;;;5472020;26;20501;-47
2024/04/12 03:36:57;;;;;;;2.07;1.07;;;16.10;92.90;;;;;;5482389;26;20499;-47
2024/04/12 03:39:24;;;;;;;1.00;0.80;;;16.10;92.90;;;;;;5481405;26;20575;-47
2024/04/12 03:42:04;;;;;;;1.57;0.93;;;16.10;92.90;;;;;;5482647;26;20454;-47
2024/04/12 03:44:37;;;;;;;1.20;0.83;;;16.10;92.90;;;;;;5470295;26;20453;-48
2024/04/12 03:47:07;;;;;;;1.10;0.80;;;16.10;93.00;;;;;;5482672;26;20458;-48
2024/04/12 03:49:42;;;;;;;1.67;1.30;;;16.10;93.00;;;;;;5483759;26;20459;-48
2024/04/12 03:52:12;;;;;;;1.43;1.10;;;16.10;93.10;;;;;;5476360;26;20465;-47
2024/04/12 03:54:42;;;;;;;1.53;0.80;;;16.10;93.10;;;;;;5480030;26;20498;-48
2024/04/12 03:57:13;;;;;;;2.13;1.40;;;16.10;93.00;;;;;;5485005;26;20494;-48
2024/04/12 03:59:44;;;;;;;1.77;0.90;;;16.10;93.10;;;;;;5470697;26;20461;-47
2024/04/12 04:02:18;;;;;;;1.53;1.00;;;16.10;93.10;;;;;;5455869;26;20509;-48
2024/04/12 04:04:49;;;;;;;1.70;1.20;;;16.10;93.10;;;;;;5481749;26;20542;-48
2024/04/12 04:07:16;;;;;;;1.67;1.07;;;16.10;93.20;;;;;;5472769;26;20497;-48
2024/04/12 04:09:49;;;;;;;3.43;1.20;;;16.10;93.20;;;;;;5483466;26;20501;-47
2024/04/12 04:12:21;;;;;;;2.77;1.33;;;16.10;93.20;;;;;;5472548;26;20513;-47
2024/04/12 04:14:55;;;;;;;3.00;1.47;;;16.10;93.20;;;;;;5480959;26;20461;-47
2024/04/12 04:17:29;;;;;;;3.00;1.20;;;16.10;93.20;;;;;;5484603;26;20449;-48
2024/04/12 04:20:05;;;;;;;1.80;1.10;;;16.10;93.20;;;;;;5483250;26;20513;-47
2024/04/12 04:22:40;;;;;;;1.90;1.50;;;16.10;93.30;;;;;;5467999;26;20462;-47
2024/04/12 04:25:10;;;;;;;1.67;1.50;;;16.10;93.30;;;;;;5474702;26;20465;-47
2024/04/12 04:27:40;;;;;;;1.60;1.10;;;16.10;93.30;;;;;;5478268;26;20470;-48
2024/04/12 04:30:18;;;;;;;1.63;1.17;;;16.00;93.30;;;;;;5469072;26;20516;-48
2024/04/12 04:32:46;;;;;;;1.70;1.30;;;16.10;93.40;;;;;;5483479;26;20465;-48
2024/04/12 04:35:16;;;;;;;2.27;1.20;;;16.00;93.40;;;;;;5471260;26;20514;-47
2024/04/12 04:37:44;;;;;;;1.67;1.20;;;16.00;93.30;;;;;;5484274;26;20477;-48
2024/04/12 04:40:16;;;;;;;1.80;1.20;;;16.00;93.40;;;;;;5470439;26;20586;-47
2024/04/12 04:42:49;;;;;;;7.10;2.33;;;16.00;93.40;;;;;;5475185;26;20498;-48
2024/04/12 04:45:21;;;;;;;2.27;1.53;;;16.00;93.50;;;;;;5465252;26;20883;-47
2024/04/12 04:47:50;;;;;;;3.23;2.00;;;16.00;93.50;;;;;;5483253;26;20509;-48
2024/04/12 04:50:21;;;;;;;2.10;1.17;;;16.00;93.70;;;;;;5481675;26;20521;-47
2024/04/12 04:52:50;;;;;;;1.57;1.10;;;16.00;93.80;;;;;;5475409;26;20513;-47
2024/04/12 04:55:21;;;;;;;1.63;1.13;;;16.00;93.80;;;;;;5483749;26;21010;-47
2024/04/12 04:57:54;;;;;;;2.30;1.43;;;16.00;94.30;;;;;;5481042;26;20499;-47
2024/04/12 05:00:28;;;;;;;3.47;1.40;;;16.00;93.90;;;;;;5473397;26;21086;-48
2024/04/12 05:02:55;;;;;;;3.13;1.30;;;16.00;94.00;;;;;;5486070;26;20457;-48
2024/04/12 05:05:27;;;;;;;2.93;1.50;;;16.00;93.90;;;;;;5487895;26;20453;-48
2024/04/12 05:07:57;;;;;;;2.10;1.43;;;16.10;94.00;;;;;;5475395;26;20573;-47
2024/04/12 05:10:33;;;;;;;1.60;1.20;;;16.00;93.90;;;;;;5487215;26;20453;-48
2024/04/12 05:13:06;;;;;;;3.53;1.43;;;16.00;93.90;;;;;;5472962;26;20894;-47
2024/04/12 05:15:52;;;;;;;1.87;1.23;;;16.00;94.00;;;;;;5487726;25;20876;-46
2024/04/12 05:18:19;;;;;;;2.03;1.40;;;16.00;93.90;;;;;;5475900;26;20862;-47
2024/04/12 05:20:50;;;;;;;1.83;1.30;;;16.00;94.00;;;;;;5482946;26;20457;-47
2024/04/12 05:23:18;;;;;;;2.43;1.60;;;16.00;94.00;;;;;;5479558;26;20461;-47
2024/04/12 05:25:49;;;;;;;2.70;0.97;;;16.10;94.10;;;;;;5510551;26;20461;-48
2024/04/12 05:28:20;;;;;;;2.73;1.13;;;16.00;94.00;;;;;;5461284;26;20514;-50
2024/04/12 05:30:54;;;;;;;1.20;0.70;;;16.00;94.20;;;;;;5480660;26;20469;-48
2024/04/12 05:33:23;;;;;;;3.00;1.53;;;16.00;94.10;;;;;;5484733;26;20468;-48
2024/04/12 05:35:54;;;;;;;1.77;1.20;;;16.00;94.10;;;;;;5486440;26;20461;-47
2024/04/12 05:38:23;;;;;;;3.40;1.20;;;16.00;94.20;;;;;;5487992;26;20516;-49
2024/04/12 05:40:56;;;;;;;2.30;1.10;;;16.00;94.20;;;;;;5481843;26;20457;-48
2024/04/12 05:43:29;;;;;;;1.83;1.07;;;16.00;94.20;;;;;;5485522;26;20880;-46
2024/04/12 05:46:01;;;;;;;2.13;1.50;;;16.00;94.10;;;;;;5486491;26;20865;-48
2024/04/12 05:48:30;;;;;;;1.33;0.70;;;16.00;94.20;;;;;;5481724;26;20895;-46
2024/04/12 05:51:01;;;;;;;2.33;1.20;;;16.00;94.10;;;;;;5480909;26;20535;-48
2024/04/12 05:53:30;;;;;;;2.67;1.23;;;16.00;94.00;;;;;;5487930;26;20449;-47
2024/04/12 05:58:51;;;;;;;5.97;1.23;;;16.00;94.10;;;;;;5484361;26;20603;-48
2024/04/12 06:01:24;;;;;;;1.20;0.80;;;16.10;94.20;;;;;;5469763;26;20808;-47
2024/04/12 06:03:54;;;;;;;1.70;1.20;;;16.00;94.10;;;;;;5480225;26;20516;-46
2024/04/12 06:06:30;;;;;;;1.40;1.00;;;16.00;94.20;;;;;;5487626;26;20461;-46
2024/04/12 06:09:01;;;;;;;1.60;0.93;;;16.00;94.10;;;;;;5486336;26;20464;-46
2024/04/12 06:11:31;;;;;;;4.47;1.83;;;16.00;94.10;;;;;;5468645;26;20465;-47
2024/04/12 06:14:02;;;;;;;2.63;1.50;;;16.00;94.30;;;;;;5477130;26;20457;-47
2024/04/12 06:16:32;;;;;;;1.97;1.07;;;16.00;94.50;;;;;;5486090;26;20817;-47
2024/04/12 06:19:02;;;;;;;3.43;1.10;;;16.00;94.30;;;;;;5482431;26;20614;-47
2024/04/12 06:21:32;;;;;;;2.27;1.20;;;16.00;94.40;;;;;;5487313;26;20470;-47
2024/04/12 06:24:00;;;;;;;1.90;1.30;;;16.00;94.40;;;;;;5484534;26;20474;-46
2024/04/12 06:26:30;;;;;;;2.20;1.33;;;16.00;94.40;;;;;;5474060;26;20462;-48
2024/04/12 06:29:05;;;;;;;2.50;1.47;;;16.00;94.40;;;;;;5481802;26;21066;-48
2024/04/12 06:31:38;;;;;;;3.67;1.37;;;16.00;94.40;;;;;;5474353;26;20564;-48
2024/04/12 06:34:05;;;;;;;2.60;1.40;;;16.00;94.40;;;;;;5481079;26;20474;-48
2024/04/12 06:36:36;;;;;;;2.30;1.10;;;16.00;94.40;;;;;;5486485;26;20994;-47
2024/04/12 06:39:04;;;;;;;1.70;1.10;;;16.00;94.50;;;;;;5480382;26;20564;-47
2024/04/12 06:41:35;;;;;;;2.53;1.30;;;16.00;94.50;;;;;;5473999;26;20581;-48
2024/04/12 06:44:05;;;;;;;2.10;1.10;;;16.00;94.60;;;;;;5470852;26;20446;-47
2024/04/12 06:46:35;;;;;;;2.00;1.30;;;16.00;94.50;;;;;;5486730;26;20532;-47
2024/04/12 06:49:07;;;;;;;1.80;1.23;;;16.00;94.50;;;;;;5484451;26;20457;-47
2024/04/12 06:51:43;;;;;;;1.80;1.50;;;16.00;94.50;;;;;;5479493;26;20466;-47
2024/04/12 06:54:11;;;;;;;2.27;1.43;;;16.00;94.60;;;;;;5479707;26;20628;-48
2024/04/12 06:56:42;;;;;;;2.00;1.20;;;16.00;94.70;;;;;;5486356;26;20506;-47
2024/04/12 06:59:13;;;;;;;1.37;1.03;;;16.00;94.50;;;;;;5463404;26;20595;-47
2024/04/12 07:01:45;;;;;;;2.63;1.50;;;16.00;94.60;;;;;;5483202;26;20502;-47
2024/04/12 07:04:12;;;;;;;1.50;1.03;;;16.00;94.60;;;;;;5483834;26;20473;-47
2024/04/12 07:06:43;;;;;;;1.90;1.30;;;16.00;94.60;;;;;;5476105;26;20441;-47
2024/04/12 07:09:10;;;;;;;1.93;1.33;;;16.00;94.50;;;;;;5467699;26;20457;-47
2024/04/12 07:11:41;;;;;;;5.03;1.70;;;16.00;94.60;;;;;;5478383;26;20470;-48
2024/04/12 07:14:11;;;;;;;1.77;1.17;;;16.00;94.90;;;;;;5481920;26;20518;-48
2024/04/12 07:16:42;;;;;;;1.83;1.13;;;16.00;94.80;;;;;;5487001;26;20457;-47
2024/04/12 07:19:12;;;;;;;2.67;1.37;;;16.00;94.80;;;;;;5481993;26;20571;-48
2024/04/12 07:21:42;;;;;;;3.03;1.53;;;16.00;94.80;;;;;;5474650;26;20556;-48
2024/04/12 07:24:09;;;;;;;2.10;1.10;;;16.00;94.90;;;;;;5476281;26;20867;-49
2024/04/12 07:26:39;;;;;;;1.80;1.33;;;16.00;94.80;;;;;;5486623;26;20522;-48
2024/04/12 07:29:06;;;;;;;2.80;1.67;;;16.00;94.80;;;;;;5481292;26;20515;-47
2024/04/12 07:31:39;;;;;;;2.10;1.50;;;16.00;94.70;;;;;;5479107;26;21262;-48
2024/04/12 07:34:06;;;;;;;4.03;1.43;;;16.00;94.70;;;;;;5483642;26;20454;-48
2024/04/12 07:36:39;;;;;;;2.00;1.50;;;16.00;94.80;;;;;;5485776;26;20454;-47
2024/04/12 07:39:07;;;;;;;3.90;1.70;;;16.00;94.80;;;;;;5470585;26;20510;-48
2024/04/12 07:41:43;;;;;;;1.90;1.17;;;16.00;95.00;;;;;;5478224;26;20459;-48
2024/04/12 07:44:12;;;;;;;3.60;1.40;;;16.00;94.90;;;;;;5468368;26;20465;-49
2024/04/12 07:46:49;;;;;;;1.87;1.07;;;16.00;94.90;;;;;;5485298;26;20457;-48
2024/04/12 07:49:17;;;;;;;2.33;1.50;;;16.00;94.90;;;;;;5472176;26;20861;-48
2024/04/12 07:51:49;;;;;;;2.00;1.23;;;16.00;94.90;;;;;;5478031;26;20466;-48
2024/04/12 07:54:16;;;;;;;1.40;0.90;;;16.00;95.00;;;;;;5472696;26;20540;-47
2024/04/12 07:57:02;;;;;;;5.00;1.47;;;16.00;94.70;;;;;;5483313;26;20469;-49
2024/04/12 07:59:30;;;;;;;3.73;2.20;;;16.00;95.60;;;;;;5461817;26;20527;-48
2024/04/12 08:02:06;;;;;;;2.20;1.80;;;16.00;96.80;;;;;;5473427;26;20451;-48
2024/04/12 08:04:45;;;;;;;2.60;1.30;;;16.00;96.60;;;;;;5483394;26;20477;-48
2024/04/12 08:07:13;;;;;;;3.07;1.50;;;16.00;96.50;;;;;;5479494;26;20527;-48
2024/04/12 08:09:46;;;;;;;1.80;0.87;;;16.00;96.40;;;;;;5482751;26;20790;-47
2024/04/12 08:12:14;;;;;;;4.40;1.70;;;16.00;96.20;;;;;;5471722;26;20462;-47
2024/04/12 08:14:51;;;;;;;3.77;1.53;;;16.00;96.10;;;;;;5469335;26;20516;-48
2024/04/12 08:17:25;;;;;;;3.47;2.13;;;16.00;96.20;;;;;;5485105;26;20847;-48
2024/04/12 08:20:00;;;;;;;2.00;1.33;;;16.00;96.20;;;;;;5485291;26;20445;-48
2024/04/12 08:22:28;;;;;;;2.93;1.40;;;16.00;96.20;;;;;;5478580;26;20891;-49
2024/04/12 08:25:01;;;;;;;2.73;1.50;;;16.00;96.20;;;;;;5478979;26;20453;-46
2024/04/12 08:27:30;;;;;;;5.47;1.80;;;16.00;96.20;;;;;;5477644;26;20445;-49
2024/04/12 08:30:00;;;;;;;2.10;1.47;;;16.00;96.20;;;;;;5473740;26;20465;-49
2024/04/12 08:32:31;;;;;;;2.07;1.63;;;16.10;96.10;;;;;;5476555;26;21077;-48
2024/04/12 08:35:06;;;;;;;2.20;1.60;;;16.00;96.00;;;;;;5478528;26;20469;-48
2024/04/12 08:37:37;;;;;;;2.73;1.40;;;16.00;96.20;;;;;;5478004;26;20902;-48
2024/04/12 08:40:10;;;;;;;1.90;1.33;;;16.10;96.20;;;;;;5483985;26;20501;-47
2024/04/12 08:42:39;;;;;;;3.67;1.50;;;16.00;96.10;;;;;;5468100;26;20568;-51
2024/04/12 08:45:17;;;;;;;4.63;1.60;;;16.00;96.20;;;;;;5482373;26;21010;-49
2024/04/12 08:47:54;;;;;;;3.10;1.30;;;16.10;96.10;;;;;;5484415;26;20457;-48
2024/04/12 08:50:31;;;;;;;2.57;1.70;;;16.10;96.00;;;;;;5463470;26;20474;-48
2024/04/12 08:53:04;;;;;;;1.33;0.90;;;16.10;95.90;;;;;;5479784;26;20559;-47
2024/04/12 08:55:35;;;;;;;1.70;1.30;;;16.10;96.00;;;;;;5468507;26;20508;-47
2024/04/12 08:58:06;;;;;;;2.47;1.23;;;16.10;95.80;;;;;;5453038;26;20466;-48
2024/04/12 09:00:38;;;;;;;1.57;1.20;;;16.10;96.00;;;;;;5479687;26;20884;-49
2024/04/12 09:03:10;;;;;;;1.60;0.93;;;16.10;95.90;;;;;;5463883;26;20510;-48
2024/04/12 09:05:42;;;;;;;3.47;1.27;;;16.10;95.80;;;;;;5459663;26;20553;-48
2024/04/12 09:08:17;;;;;;;2.43;1.00;;;16.10;95.90;;;;;;5461473;26;20470;-48
2024/04/12 09:10:52;;;;;;;2.00;1.40;;;16.10;95.90;;;;;;5468874;26;20481;-49
2024/04/12 09:13:21;;;;;;;2.83;1.20;;;16.10;95.80;;;;;;5473491;26;20469;-47
2024/04/12 09:15:52;;;;;;;1.70;1.33;;;16.10;95.80;;;;;;5465104;26;20528;-50
2024/04/12 09:18:26;;;;;;;2.23;1.20;;;16.10;95.90;;;;;;5449760;26;20459;-49
2024/04/12 09:21:01;;;;;;;2.67;1.30;;;16.10;95.80;;;;;;5466524;26;20514;-49
2024/04/12 09:23:32;;;;;;;2.10;1.13;;;16.10;95.90;;;;;;5465603;26;20466;-48
2024/04/12 09:26:21;;;;;;;2.13;1.17;;;16.10;95.70;;;;;;5463865;26;20454;-48
2024/04/12 09:28:56;;;;;;;1.20;0.83;;;16.10;95.80;;;;;;5460059;26;20529;-48
2024/04/12 09:34:35;;;;;;;2.33;1.30;;;16.10;95.60;;;;;;5452540;26;20461;-48
2024/04/12 09:37:28;;;;;;;1.70;1.10;;;16.10;95.60;;;;;;5467537;26;20567;-50
2024/04/12 09:40:04;;;;;;;1.50;1.00;;;16.10;95.60;;;;;;5461976;26;20570;-49
2024/04/12 09:42:44;;;;;;;3.70;1.27;;;16.10;95.50;;;;;;5459031;26;20465;-50
2024/04/12 09:45:19;;;;;;;2.00;0.97;;;16.10;95.50;;;;;;5458724;26;20521;-48
2024/04/12 10:38:30;;;;;;;1.93;1.00;;;16.20;95.30;;;;;;5451277;26;20789;-46
2024/04/12 10:41:17;;;;;;;1.60;0.90;;;16.20;95.30;;;;;;5466670;26;20952;-46
2024/04/12 10:43:47;;;;;;;3.43;1.17;;;16.20;95.30;;;;;;5450923;26;20594;-46
2024/04/12 10:46:15;;;;;;;2.37;0.93;;;16.20;95.40;;;;;;5484322;26;20466;-46
2024/04/12 10:48:47;;;;;;;1.87;1.10;;;16.20;95.20;;;;;;5479313;26;20579;-47
2024/04/12 10:51:16;;;;;;;3.17;1.30;;;16.20;95.30;;;;;;5480256;26;20519;-46
2024/04/12 10:53:48;;;;;;;2.43;0.90;;;16.20;95.30;;;;;;5460676;26;20473;-47
2024/04/12 10:56:19;;;;;;;1.67;1.07;;;16.20;95.30;;;;;;5467373;26;20446;-46
2024/04/12 10:58:51;;;;;;;5.13;1.50;;;16.20;95.80;;;;;;5452919;26;20454;-49
2024/04/12 11:01:22;;;;;;;2.40;0.90;;;16.30;95.30;;;;;;5465081;26;20466;-48
2024/04/12 11:03:59;;;;;;;1.70;1.17;;;16.20;95.20;;;;;;5478444;26;20574;-46
2024/04/12 11:06:31;;;;;;;2.13;1.30;;;16.30;95.40;;;;;;5488306;26;20465;-48
2024/04/12 11:09:04;;;;;;;1.73;1.17;;;16.30;95.50;;;;;;5488167;26;20799;-46
2024/04/12 11:11:38;;;;;;;1.93;1.17;;;16.30;95.40;;;;;;5470497;26;20784;-48
2024/04/12 11:14:15;;;;;;;1.70;1.43;;;16.30;95.50;;;;;;5457843;26;20457;-45
2024/04/12 11:31:14;;;;;;;2.57;1.50;;;16.20;95.60;;;;;;5463709;26;21151;-46
2024/04/12 11:33:52;;;;;;;1.63;1.13;;;16.20;95.60;;;;;;5459013;26;20457;-47
2024/04/12 11:36:41;;;;;;;2.37;1.20;;;16.20;95.60;;;;;;5468278;26;20527;-48
2024/04/12 11:39:17;;;;;;;1.43;0.80;;;16.20;95.70;;;;;;5452845;26;20442;-46
2024/04/12 11:41:49;;;;;;;1.77;1.20;;;16.20;95.70;;;;;;5455235;26;21101;-46
2024/04/12 11:44:19;;;;;;;1.60;1.20;;;16.20;95.60;;;;;;5460832;26;20450;-48
2024/04/12 11:46:50;;;;;;;2.70;1.00;;;16.20;95.60;;;;;;5457333;26;20455;-48
2024/04/12 11:49:25;;;;;;;1.77;1.17;;;16.20;95.60;;;;;;5467596;26;20536;-48
2024/04/12 11:51:55;;;;;;;2.00;1.07;;;16.20;95.60;;;;;;5456852;26;20811;-46
2024/04/12 11:54:28;;;;;;;3.93;1.33;;;16.20;95.60;;;;;;5458943;26;20445;-46
2024/04/12 11:56:59;;;;;;;1.80;1.20;;;16.20;95.60;;;;;;5471356;26;20470;-46
2024/04/12 11:59:32;;;;;;;2.87;1.00;;;16.20;95.60;;;;;;5472247;26;21042;-47
2024/04/12 12:02:00;;;;;;;2.00;1.17;;;16.20;95.60;;;;;;5455704;26;20459;-48
2024/04/12 12:04:30;;;;;;;2.43;1.40;;;16.20;95.60;;;;;;5470659;26;21079;-47
2024/04/12 12:06:59;;;;;;;2.97;0.97;;;16.20;95.60;;;;;;5455813;26;20507;-48
2024/04/12 12:09:31;;;;;;;2.10;1.20;;;16.20;95.60;;;;;;5461091;26;20473;-47
2024/04/12 12:12:00;;;;;;;1.60;0.80;;;16.20;95.60;;;;;;5455151;26;20458;-48
2024/04/12 12:14:33;;;;;;;1.93;1.03;;;16.20;95.70;;;;;;5450167;26;21081;-47
2024/04/12 12:17:00;;;;;;;1.40;0.87;;;16.20;95.60;;;;;;5467740;26;20473;-47
2024/04/12 12:19:30;;;;;;;1.60;1.10;;;16.20;95.50;;;;;;5476229;26;20463;-47
2024/04/12 12:21:59;;;;;;;2.13;1.00;;;16.20;95.50;;;;;;5468352;26;20462;-47
2024/04/12 12:24:29;;;;;;;2.50;1.20;;;16.20;95.60;;;;;;5451927;26;20458;-47
2024/04/12 12:26:58;;;;;;;2.07;0.90;;;16.20;95.50;;;;;;5453139;26;20584;-47
2024/04/12 12:29:28;;;;;;;1.30;1.00;;;16.20;95.50;;;;;;5449628;26;20475;-47
2024/04/12 12:31:58;;;;;;;1.23;0.97;;;16.30;95.50;;;;;;5478148;26;20537;-48
2024/04/12 12:34:28;;;;;;;1.30;0.83;;;16.30;95.50;;;;;;5465883;26;20533;-47
2024/04/12 12:36:59;;;;;;;2.30;1.40;;;16.30;95.40;;;;;;5452889;26;20459;-47
2024/04/12 12:39:31;;;;;;;1.80;1.13;;;16.30;95.40;;;;;;5455281;26;20507;-47
2024/04/12 12:41:58;;;;;;;1.93;1.10;;;16.30;95.40;;;;;;5472066;26;20525;-47
2024/04/12 12:44:28;;;;;;;1.20;0.80;;;16.40;95.40;;;;;;5469011;26;20457;-47
2024/04/12 12:46:59;;;;;;;2.37;1.30;;;16.30;95.60;;;;;;5479257;26;20818;-48
2024/04/12 12:49:39;;;;;;;4.43;1.70;;;16.40;95.20;;;;;;5452634;26;20860;-47
2024/04/12 12:52:11;;;;;;;1.63;0.87;;;16.40;95.20;;;;;;5450713;26;20583;-47
2024/04/12 12:54:41;;;;;;;1.40;1.00;;;16.40;95.30;;;;;;5462188;26;21026;-47
2024/04/12 12:57:09;;;;;;;1.90;0.97;;;16.40;95.30;;;;;;5453056;26;20446;-48
2024/04/12 12:59:42;;;;;;;1.57;1.00;;;16.40;95.50;;;;;;5462856;26;20470;-46
2024/04/12 13:02:14;;;;;;;1.87;1.20;;;16.40;95.10;;;;;;5482963;26;20449;-47
2024/04/12 13:04:46;;;;;;;4.40;1.00;;;16.40;95.20;;;;;;5451742;26;20455;-46
2024/04/12 13:07:16;;;;;;;1.40;1.20;;;16.40;95.20;;;;;;5474641;26;20463;-48
2024/04/12 13:09:53;;;;;;;2.90;1.10;;;16.40;95.20;;;;;;5473521;26;20450;-48
2024/04/12 13:12:28;;;;;;;1.53;1.10;;;16.40;95.30;;;;;;5478656;26;20494;-47
2024/04/12 13:15:00;;;;;;;1.70;1.00;;;16.40;95.30;;;;;;5452742;26;20518;-48
2024/04/12 13:17:36;;;;;;;1.80;1.00;;;16.40;95.30;;;;;;5475149;26;20441;-47
2024/04/12 13:20:18;;;;;;;1.87;1.10;;;16.40;95.30;;;;;;5461426;26;20465;-48
2024/04/12 13:22:45;;;;;;;1.30;1.00;;;16.40;95.30;;;;;;5469834;26;20543;-48
2024/04/12 13:25:16;;;;;;;2.00;1.00;;;16.40;95.30;;;;;;5459314;26;20597;-47
2024/04/12 13:27:47;;;;;;;4.17;1.60;;;16.40;95.30;;;;;;5456103;26;20518;-47
2024/04/12 13:30:18;;;;;;;1.30;0.87;;;16.40;95.40;;;;;;5471972;26;20838;-47
2024/04/12 13:32:49;;;;;;;1.60;1.00;;;16.50;95.20;;;;;;5461370;26;20571;-47
2024/04/12 13:35:21;;;;;;;2.83;1.00;;;16.50;95.20;;;;;;5463319;26;20465;-47
2024/04/12 13:37:49;;;;;;;3.47;1.20;;;16.50;95.70;;;;;;5460578;26;20453;-47
2024/04/12 13:40:20;;;;;;;2.07;1.47;;;16.50;95.20;;;;;;5454831;26;21145;-47
2024/04/12 13:42:49;;;;;;;3.17;1.50;;;16.40;95.30;;;;;;5453424;26;20892;-48
2024/04/12 13:50:58;;;;;;;2.30;1.17;;;16.50;95.30;;;;;;5465276;26;20515;-47
2024/04/12 13:53:36;;;;;;;3.30;1.27;;;16.50;95.30;;;;;;5466043;26;20463;-47
2024/04/12 13:58:56;;;;;;;2.27;0.90;;;16.50;95.80;;;;;;5453459;26;20502;-48
2024/04/12 14:01:23;;;;;;;2.23;1.00;;;16.50;95.40;;;;;;5480305;26;21001;-46
2024/04/12 14:04:02;;;;;;;2.00;1.20;;;16.50;95.40;;;;;;5471616;26;20451;-48
2024/04/12 14:06:32;;;;;;;1.70;1.03;;;16.50;95.40;;;;;;5466208;26;20990;-48
2024/04/12 14:09:04;;;;;;;1.60;1.10;;;16.50;95.40;;;;;;5455289;26;20508;-45
2024/04/12 14:11:32;;;;;;;2.23;0.90;;;16.50;95.40;;;;;;5453919;26;20803;-46
2024/04/12 14:14:03;;;;;;;1.40;1.10;;;16.50;95.30;;;;;;5468111;26;20563;-46
2024/04/12 14:16:32;;;;;;;1.60;1.23;;;16.50;95.40;;;;;;5461931;26;20921;-47
2024/04/12 14:19:04;;;;;;;2.43;0.90;;;16.50;95.40;;;;;;5455670;26;20503;-46
2024/04/12 14:21:32;;;;;;;2.03;1.03;;;16.50;95.40;;;;;;5468816;26;20555;-45
2024/04/12 14:24:10;;;;;;;1.50;1.00;;;16.50;95.30;;;;;;5454809;26;20576;-48
2024/04/12 14:26:38;;;;;;;1.53;1.00;;;16.50;95.30;;;;;;5465615;26;20569;-48
2024/04/12 14:29:08;;;;;;;2.10;0.93;;;16.50;95.40;;;;;;5467009;26;21148;-47
2024/04/12 14:31:35;;;;;;;3.70;1.33;;;16.50;95.40;;;;;;5472936;26;20469;-47